Decoded Metar for KLBX (ANGLETON in TX, USA) (IATA:LBX) | Meteo·Mobile Aviation Weather
aviador You're here:

KLBX Decoded Metar

ANGLETON in TX, USA
Report Time2018-09-19 21:53:00
UTC Time2018-09-19 22:13:48
Flight Rules vfr VFR
Wind170° at 10 kt
W.Decomp.*RWY 17: 10.0 kt HW 0.9 kt LCW
W.Rank170° ranks 1
Current wind is below 170° avg. (10.4)
Visibility9999 m
Phenomena:N/A
Clouds:N/A
Expected CloudBase > 3,600 ft AGL from Temp-Dew spread
CeilingNone
Temp32°C (ISA +17)
Dew Point23°C (59% RH)
Heat Index36.8°C
QNH1013 hPa
Density Alt2,333 ft
Elevation20 ft
Report Wrong Elevation
Raw Report
KLBX 192153Z AUTO 17010KT 10SM CLR 32/23 A2991 RMK AO2 SLP127
T03170233=

Extra information for KLBX:More info

Metar Taf Metar & Taf Last 4 Metars F.Rules Stats Wind Profile Meteogram Temp Stats Airport Information Weather charts Add Link Nearby VenuesMetar ALERT Operation Metar Decoded Social comments

AIRNAV info for KLBX